sensor_id;sensor_type;location;lat;lon;timestamp;P1;durP1;ratioP1;P2;durP2;ratioP2
6842;SDS011;3460;52.028;8.916;2023-04-15T00:01:10;6.63;;;5.23;;
6842;SDS011;3460;52.028;8.916;2023-04-15T00:03:38;5.80;;;4.97;;
6842;SDS011;3460;52.028;8.916;2023-04-15T00:06:06;6.90;;;5.10;;
6842;SDS011;3460;52.028;8.916;2023-04-15T00:08:33;6.90;;;4.73;;
6842;SDS011;3460;52.028;8.916;2023-04-15T00:11:00;5.43;;;4.53;;
6842;SDS011;3460;52.028;8.916;2023-04-15T00:13:29;6.10;;;4.73;;
6842;SDS011;3460;52.028;8.916;2023-04-15T00:15:56;6.60;;;5.20;;
6842;SDS011;3460;52.028;8.916;2023-04-15T00:18:23;6.47;;;5.33;;
6842;SDS011;3460;52.028;8.916;2023-04-15T00:20:52;6.33;;;5.47;;
6842;SDS011;3460;52.028;8.916;2023-04-15T00:23:19;7.00;;;5.43;;
6842;SDS011;3460;52.028;8.916;2023-04-15T00:25:46;6.10;;;5.20;;
6842;SDS011;3460;52.028;8.916;2023-04-15T00:28:12;8.57;;;5.50;;
6842;SDS011;3460;52.028;8.916;2023-04-15T00:30:39;8.10;;;6.07;;
6842;SDS011;3460;52.028;8.916;2023-04-15T00:33:06;6.00;;;5.03;;
6842;SDS011;3460;52.028;8.916;2023-04-15T00:35:33;7.27;;;5.37;;
6842;SDS011;3460;52.028;8.916;2023-04-15T00:38:02;6.03;;;5.30;;
6842;SDS011;3460;52.028;8.916;2023-04-15T00:40:30;5.87;;;5.20;;
6842;SDS011;3460;52.028;8.916;2023-04-15T00:42:57;6.37;;;5.43;;
6842;SDS011;3460;52.028;8.916;2023-04-15T00:45:24;6.90;;;5.27;;
6842;SDS011;3460;52.028;8.916;2023-04-15T00:47:51;7.93;;;5.73;;
6842;SDS011;3460;52.028;8.916;2023-04-15T00:50:18;6.80;;;6.03;;
6842;SDS011;3460;52.028;8.916;2023-04-15T00:52:45;6.23;;;5.27;;
6842;SDS011;3460;52.028;8.916;2023-04-15T00:55:13;8.30;;;6.13;;
6842;SDS011;3460;52.028;8.916;2023-04-15T00:57:40;7.13;;;5.33;;
6842;SDS011;3460;52.028;8.916;2023-04-15T01:00:08;6.80;;;5.57;;
6842;SDS011;3460;52.028;8.916;2023-04-15T01:02:35;8.07;;;5.10;;
6842;SDS011;3460;52.028;8.916;2023-04-15T01:05:03;9.13;;;5.40;;
6842;SDS011;3460;52.028;8.916;2023-04-15T01:07:31;6.43;;;5.33;;
6842;SDS011;3460;52.028;8.916;2023-04-15T01:09:58;7.10;;;5.90;;
6842;SDS011;3460;52.028;8.916;2023-04-15T01:12:26;9.37;;;5.33;;
6842;SDS011;3460;52.028;8.916;2023-04-15T01:14:54;8.20;;;5.57;;
6842;SDS011;3460;52.028;8.916;2023-04-15T01:17:21;7.90;;;5.27;;
6842;SDS011;3460;52.028;8.916;2023-04-15T01:19:48;7.13;;;5.40;;
6842;SDS011;3460;52.028;8.916;2023-04-15T01:22:16;8.70;;;5.33;;
6842;SDS011;3460;52.028;8.916;2023-04-15T01:24:43;6.93;;;5.53;;
6842;SDS011;3460;52.028;8.916;2023-04-15T01:27:22;6.20;;;5.10;;
6842;SDS011;3460;52.028;8.916;2023-04-15T01:29:49;8.80;;;5.13;;
6842;SDS011;3460;52.028;8.916;2023-04-15T01:32:16;6.97;;;5.47;;
6842;SDS011;3460;52.028;8.916;2023-04-15T01:34:43;6.43;;;5.10;;
6842;SDS011;3460;52.028;8.916;2023-04-15T01:37:10;5.97;;;4.90;;
6842;SDS011;3460;52.028;8.916;2023-04-15T01:39:37;7.67;;;4.90;;
6842;SDS011;3460;52.028;8.916;2023-04-15T01:42:04;6.77;;;5.40;;
6842;SDS011;3460;52.028;8.916;2023-04-15T01:44:33;5.80;;;5.10;;
6842;SDS011;3460;52.028;8.916;2023-04-15T01:46:59;7.13;;;5.53;;
6842;SDS011;3460;52.028;8.916;2023-04-15T01:49:26;6.20;;;5.17;;
6842;SDS011;3460;52.028;8.916;2023-04-15T01:51:53;6.80;;;5.53;;
6842;SDS011;3460;52.028;8.916;2023-04-15T01:54:20;7.53;;;5.43;;
6842;SDS011;3460;52.028;8.916;2023-04-15T01:56:46;6.03;;;5.43;;
6842;SDS011;3460;52.028;8.916;2023-04-15T01:59:13;6.67;;;5.40;;
6842;SDS011;3460;52.028;8.916;2023-04-15T02:01:42;7.23;;;5.50;;
6842;SDS011;3460;52.028;8.916;2023-04-15T02:04:09;7.13;;;5.60;;
6842;SDS011;3460;52.028;8.916;2023-04-15T02:06:40;7.80;;;5.67;;
6842;SDS011;3460;52.028;8.916;2023-04-15T02:09:07;6.00;;;5.40;;
6842;SDS011;3460;52.028;8.916;2023-04-15T02:11:34;7.13;;;5.47;;
6842;SDS011;3460;52.028;8.916;2023-04-15T02:14:01;7.17;;;5.70;;
6842;SDS011;3460;52.028;8.916;2023-04-15T02:16:29;6.67;;;5.00;;
6842;SDS011;3460;52.028;8.916;2023-04-15T02:18:58;7.47;;;5.70;;
6842;SDS011;3460;52.028;8.916;2023-04-15T02:21:25;8.67;;;5.70;;
6842;SDS011;3460;52.028;8.916;2023-04-15T02:23:52;7.07;;;5.50;;
6842;SDS011;3460;52.028;8.916;2023-04-15T02:26:20;7.93;;;5.83;;
6842;SDS011;3460;52.028;8.916;2023-04-15T02:28:47;6.87;;;5.43;;
6842;SDS011;3460;52.028;8.916;2023-04-15T02:31:15;7.63;;;5.60;;
6842;SDS011;3460;52.028;8.916;2023-04-15T02:33:42;7.57;;;5.97;;
6842;SDS011;3460;52.028;8.916;2023-04-15T02:36:10;7.20;;;5.80;;
6842;SDS011;3460;52.028;8.916;2023-04-15T02:38:37;7.03;;;5.80;;
6842;SDS011;3460;52.028;8.916;2023-04-15T02:41:06;8.13;;;6.67;;
6842;SDS011;3460;52.028;8.916;2023-04-15T02:43:33;8.90;;;7.20;;
6842;SDS011;3460;52.028;8.916;2023-04-15T02:46:00;10.73;;;7.17;;
6842;SDS011;3460;52.028;8.916;2023-04-15T02:48:27;9.40;;;7.33;;
6842;SDS011;3460;52.028;8.916;2023-04-15T02:53:41;9.60;;;6.90;;
6842;SDS011;3460;52.028;8.916;2023-04-15T02:56:08;10.53;;;7.73;;
6842;SDS011;3460;52.028;8.916;2023-04-15T02:58:35;9.13;;;7.60;;
6842;SDS011;3460;52.028;8.916;2023-04-15T03:01:02;9.50;;;7.57;;
6842;SDS011;3460;52.028;8.916;2023-04-15T03:03:29;10.73;;;7.47;;
6842;SDS011;3460;52.028;8.916;2023-04-15T03:05:56;8.93;;;7.53;;
6842;SDS011;3460;52.028;8.916;2023-04-15T03:08:24;9.67;;;7.47;;
6842;SDS011;3460;52.028;8.916;2023-04-15T03:10:51;12.23;;;7.70;;
6842;SDS011;3460;52.028;8.916;2023-04-15T03:13:18;10.30;;;8.43;;
6842;SDS011;3460;52.028;8.916;2023-04-15T03:15:45;11.30;;;8.60;;
6842;SDS011;3460;52.028;8.916;2023-04-15T03:18:12;10.77;;;7.83;;
6842;SDS011;3460;52.028;8.916;2023-04-15T03:20:39;10.57;;;8.10;;
6842;SDS011;3460;52.028;8.916;2023-04-15T03:23:06;11.23;;;8.93;;
6842;SDS011;3460;52.028;8.916;2023-04-15T03:25:34;10.10;;;8.50;;
6842;SDS011;3460;52.028;8.916;2023-04-15T03:28:02;10.67;;;8.53;;
6842;SDS011;3460;52.028;8.916;2023-04-15T03:30:29;11.83;;;8.43;;
6842;SDS011;3460;52.028;8.916;2023-04-15T03:32:56;10.87;;;7.93;;
6842;SDS011;3460;52.028;8.916;2023-04-15T03:35:22;11.93;;;8.70;;
6842;SDS011;3460;52.028;8.916;2023-04-15T03:37:49;11.47;;;8.33;;
6842;SDS011;3460;52.028;8.916;2023-04-15T03:40:16;10.67;;;8.57;;
6842;SDS011;3460;52.028;8.916;2023-04-15T03:42:44;13.83;;;9.33;;
6842;SDS011;3460;52.028;8.916;2023-04-15T03:45:11;11.17;;;7.87;;
6842;SDS011;3460;52.028;8.916;2023-04-15T03:47:38;11.00;;;8.83;;
6842;SDS011;3460;52.028;8.916;2023-04-15T03:50:05;10.77;;;8.57;;
6842;SDS011;3460;52.028;8.916;2023-04-15T03:52:33;12.90;;;8.70;;
6842;SDS011;3460;52.028;8.916;2023-04-15T03:54:59;11.10;;;9.07;;
6842;SDS011;3460;52.028;8.916;2023-04-15T03:57:26;11.70;;;8.33;;
6842;SDS011;3460;52.028;8.916;2023-04-15T03:59:54;10.47;;;8.63;;
6842;SDS011;3460;52.028;8.916;2023-04-15T04:02:21;11.60;;;8.70;;
6842;SDS011;3460;52.028;8.916;2023-04-15T04:04:48;11.93;;;9.27;;
6842;SDS011;3460;52.028;8.916;2023-04-15T04:07:15;11.60;;;8.57;;
6842;SDS011;3460;52.028;8.916;2023-04-15T04:09:42;12.97;;;9.07;;
6842;SDS011;3460;52.028;8.916;2023-04-15T04:12:09;12.63;;;9.47;;
6842;SDS011;3460;52.028;8.916;2023-04-15T04:14:36;12.07;;;9.07;;
6842;SDS011;3460;52.028;8.916;2023-04-15T04:17:04;13.83;;;9.07;;
6842;SDS011;3460;52.028;8.916;2023-04-15T04:19:30;12.00;;;9.57;;
6842;SDS011;3460;52.028;8.916;2023-04-15T04:21:57;13.50;;;10.20;;
6842;SDS011;3460;52.028;8.916;2023-04-15T04:24:24;14.30;;;9.10;;
6842;SDS011;3460;52.028;8.916;2023-04-15T04:26:51;12.00;;;9.70;;
6842;SDS011;3460;52.028;8.916;2023-04-15T04:29:18;11.07;;;9.10;;
6842;SDS011;3460;52.028;8.916;2023-04-15T04:31:45;10.87;;;8.87;;
6842;SDS011;3460;52.028;8.916;2023-04-15T04:34:14;13.00;;;9.40;;
6842;SDS011;3460;52.028;8.916;2023-04-15T04:36:41;12.07;;;9.10;;
6842;SDS011;3460;52.028;8.916;2023-04-15T04:39:07;11.03;;;8.30;;
6842;SDS011;3460;52.028;8.916;2023-04-15T04:41:34;12.17;;;8.20;;
6842;SDS011;3460;52.028;8.916;2023-04-15T04:44:01;13.73;;;8.93;;
6842;SDS011;3460;52.028;8.916;2023-04-15T04:46:28;15.83;;;9.17;;
6842;SDS011;3460;52.028;8.916;2023-04-15T04:48:55;12.03;;;9.03;;
6842;SDS011;3460;52.028;8.916;2023-04-15T04:51:23;17.73;;;11.10;;
6842;SDS011;3460;52.028;8.916;2023-04-15T04:53:50;11.43;;;9.57;;
6842;SDS011;3460;52.028;8.916;2023-04-15T04:56:17;26.67;;;22.10;;
6842;SDS011;3460;52.028;8.916;2023-04-15T04:58:43;15.23;;;12.47;;
6842;SDS011;3460;52.028;8.916;2023-04-15T05:01:10;12.90;;;10.13;;
6842;SDS011;3460;52.028;8.916;2023-04-15T05:03:37;14.47;;;10.30;;
6842;SDS011;3460;52.028;8.916;2023-04-15T05:06:04;14.13;;;10.37;;
6842;SDS011;3460;52.028;8.916;2023-04-15T05:08:34;12.20;;;9.97;;
6842;SDS011;3460;52.028;8.916;2023-04-15T05:11:01;14.40;;;11.07;;
6842;SDS011;3460;52.028;8.916;2023-04-15T05:13:28;16.70;;;11.30;;
6842;SDS011;3460;52.028;8.916;2023-04-15T05:15:55;14.03;;;10.80;;
6842;SDS011;3460;52.028;8.916;2023-04-15T05:18:22;16.63;;;12.03;;
6842;SDS011;3460;52.028;8.916;2023-04-15T05:20:49;17.70;;;12.43;;
6842;SDS011;3460;52.028;8.916;2023-04-15T05:23:16;17.53;;;12.67;;
6842;SDS011;3460;52.028;8.916;2023-04-15T05:25:44;16.27;;;12.93;;
6842;SDS011;3460;52.028;8.916;2023-04-15T05:28:11;15.97;;;12.13;;
6842;SDS011;3460;52.028;8.916;2023-04-15T05:30:38;17.37;;;12.87;;
6842;SDS011;3460;52.028;8.916;2023-04-15T05:33:05;18.90;;;12.33;;
6842;SDS011;3460;52.028;8.916;2023-04-15T05:35:32;17.43;;;12.70;;
6842;SDS011;3460;52.028;8.916;2023-04-15T05:37:58;17.17;;;12.50;;
6842;SDS011;3460;52.028;8.916;2023-04-15T05:40:25;18.57;;;13.23;;
6842;SDS011;3460;52.028;8.916;2023-04-15T05:42:53;17.30;;;12.70;;
6842;SDS011;3460;52.028;8.916;2023-04-15T05:45:20;18.43;;;12.37;;
6842;SDS011;3460;52.028;8.916;2023-04-15T05:47:47;18.13;;;12.60;;
6842;SDS011;3460;52.028;8.916;2023-04-15T05:50:17;14.87;;;12.00;;
6842;SDS011;3460;52.028;8.916;2023-04-15T05:52:44;17.10;;;12.30;;
6842;SDS011;3460;52.028;8.916;2023-04-15T05:55:11;15.03;;;11.73;;
6842;SDS011;3460;52.028;8.916;2023-04-15T05:57:38;15.53;;;11.43;;
6842;SDS011;3460;52.028;8.916;2023-04-15T06:00:07;13.47;;;10.87;;
6842;SDS011;3460;52.028;8.916;2023-04-15T06:02:35;17.17;;;12.43;;
6842;SDS011;3460;52.028;8.916;2023-04-15T06:05:02;15.87;;;11.93;;
6842;SDS011;3460;52.028;8.916;2023-04-15T06:07:33;16.37;;;12.40;;
6842;SDS011;3460;52.028;8.916;2023-04-15T06:10:00;15.73;;;11.47;;
6842;SDS011;3460;52.028;8.916;2023-04-15T06:12:27;15.10;;;11.60;;
6842;SDS011;3460;52.028;8.916;2023-04-15T06:14:54;14.53;;;11.33;;
6842;SDS011;3460;52.028;8.916;2023-04-15T06:17:22;14.33;;;10.67;;
6842;SDS011;3460;52.028;8.916;2023-04-15T06:19:49;15.70;;;12.10;;
6842;SDS011;3460;52.028;8.916;2023-04-15T06:22:19;15.53;;;11.03;;
6842;SDS011;3460;52.028;8.916;2023-04-15T06:24:46;14.80;;;11.07;;
6842;SDS011;3460;52.028;8.916;2023-04-15T06:27:13;14.47;;;11.07;;
6842;SDS011;3460;52.028;8.916;2023-04-15T06:29:40;13.83;;;10.23;;
6842;SDS011;3460;52.028;8.916;2023-04-15T06:32:07;13.07;;;10.13;;
6842;SDS011;3460;52.028;8.916;2023-04-15T06:34:35;12.40;;;9.80;;
6842;SDS011;3460;52.028;8.916;2023-04-15T06:37:01;13.63;;;10.53;;
6842;SDS011;3460;52.028;8.916;2023-04-15T06:39:28;14.00;;;10.90;;
6842;SDS011;3460;52.028;8.916;2023-04-15T06:41:55;14.30;;;10.43;;
6842;SDS011;3460;52.028;8.916;2023-04-15T06:44:22;13.27;;;10.03;;
6842;SDS011;3460;52.028;8.916;2023-04-15T06:46:49;15.50;;;10.60;;
6842;SDS011;3460;52.028;8.916;2023-04-15T06:49:16;12.77;;;9.47;;
6842;SDS011;3460;52.028;8.916;2023-04-15T06:51:44;11.40;;;9.23;;
6842;SDS011;3460;52.028;8.916;2023-04-15T06:54:11;10.87;;;9.03;;
6842;SDS011;3460;52.028;8.916;2023-04-15T06:56:37;11.33;;;8.90;;
6842;SDS011;3460;52.028;8.916;2023-04-15T06:59:05;11.77;;;9.00;;
6842;SDS011;3460;52.028;8.916;2023-04-15T07:01:32;12.33;;;8.17;;
6842;SDS011;3460;52.028;8.916;2023-04-15T07:03:59;11.20;;;8.63;;
6842;SDS011;3460;52.028;8.916;2023-04-15T07:06:26;12.00;;;9.10;;
6842;SDS011;3460;52.028;8.916;2023-04-15T07:08:54;12.83;;;9.20;;
6842;SDS011;3460;52.028;8.916;2023-04-15T07:11:21;11.33;;;9.10;;
6842;SDS011;3460;52.028;8.916;2023-04-15T07:13:48;12.90;;;8.87;;
6842;SDS011;3460;52.028;8.916;2023-04-15T07:16:15;11.10;;;9.07;;
6842;SDS011;3460;52.028;8.916;2023-04-15T07:18:42;10.93;;;8.50;;
6842;SDS011;3460;52.028;8.916;2023-04-15T07:21:09;11.17;;;8.30;;
6842;SDS011;3460;52.028;8.916;2023-04-15T07:23:36;10.23;;;8.17;;
6842;SDS011;3460;52.028;8.916;2023-04-15T07:26:04;11.27;;;8.33;;
6842;SDS011;3460;52.028;8.916;2023-04-15T07:28:31;11.33;;;8.47;;
6842;SDS011;3460;52.028;8.916;2023-04-15T07:30:58;10.93;;;8.20;;
6842;SDS011;3460;52.028;8.916;2023-04-15T07:33:25;11.40;;;8.67;;
6842;SDS011;3460;52.028;8.916;2023-04-15T07:35:52;10.33;;;8.47;;
6842;SDS011;3460;52.028;8.916;2023-04-15T07:38:18;10.53;;;8.43;;
6842;SDS011;3460;52.028;8.916;2023-04-15T07:40:45;11.17;;;8.73;;
6842;SDS011;3460;52.028;8.916;2023-04-15T07:43:16;12.23;;;8.80;;
6842;SDS011;3460;52.028;8.916;2023-04-15T07:45:44;10.57;;;8.13;;
6842;SDS011;3460;52.028;8.916;2023-04-15T07:48:11;9.80;;;6.90;;
6842;SDS011;3460;52.028;8.916;2023-04-15T07:50:38;10.17;;;7.97;;
6842;SDS011;3460;52.028;8.916;2023-04-15T07:53:05;9.97;;;7.97;;
6842;SDS011;3460;52.028;8.916;2023-04-15T07:55:32;10.93;;;8.17;;
6842;SDS011;3460;52.028;8.916;2023-04-15T07:57:59;10.17;;;7.80;;
6842;SDS011;3460;52.028;8.916;2023-04-15T08:00:27;10.77;;;8.17;;
6842;SDS011;3460;52.028;8.916;2023-04-15T08:02:55;10.43;;;8.10;;
6842;SDS011;3460;52.028;8.916;2023-04-15T08:05:23;11.33;;;8.50;;
6842;SDS011;3460;52.028;8.916;2023-04-15T08:07:50;9.40;;;7.40;;
6842;SDS011;3460;52.028;8.916;2023-04-15T08:10:17;10.13;;;7.10;;
6842;SDS011;3460;52.028;8.916;2023-04-15T08:12:44;8.53;;;7.07;;
6842;SDS011;3460;52.028;8.916;2023-04-15T08:15:13;10.87;;;7.67;;
6842;SDS011;3460;52.028;8.916;2023-04-15T08:17:42;8.83;;;7.50;;
6842;SDS011;3460;52.028;8.916;2023-04-15T08:20:09;8.80;;;7.60;;
6842;SDS011;3460;52.028;8.916;2023-04-15T08:22:37;10.37;;;8.00;;
6842;SDS011;3460;52.028;8.916;2023-04-15T08:25:05;9.00;;;6.97;;
6842;SDS011;3460;52.028;8.916;2023-04-15T08:27:33;11.17;;;7.33;;
6842;SDS011;3460;52.028;8.916;2023-04-15T08:30:00;9.53;;;7.27;;
6842;SDS011;3460;52.028;8.916;2023-04-15T08:32:27;8.37;;;7.10;;
6842;SDS011;3460;52.028;8.916;2023-04-15T08:34:55;9.43;;;7.77;;
6842;SDS011;3460;52.028;8.916;2023-04-15T08:37:22;8.77;;;7.10;;
6842;SDS011;3460;52.028;8.916;2023-04-15T08:39:48;10.07;;;7.30;;
6842;SDS011;3460;52.028;8.916;2023-04-15T08:42:16;10.70;;;7.90;;
6842;SDS011;3460;52.028;8.916;2023-04-15T08:44:48;8.60;;;6.97;;
6842;SDS011;3460;52.028;8.916;2023-04-15T08:47:16;9.10;;;7.27;;
6842;SDS011;3460;52.028;8.916;2023-04-15T08:49:46;8.43;;;6.77;;
6842;SDS011;3460;52.028;8.916;2023-04-15T08:52:19;8.20;;;6.93;;
6842;SDS011;3460;52.028;8.916;2023-04-15T08:54:46;8.47;;;6.63;;
6842;SDS011;3460;52.028;8.916;2023-04-15T08:57:13;10.37;;;7.30;;
6842;SDS011;3460;52.028;8.916;2023-04-15T08:59:41;8.43;;;6.73;;
6842;SDS011;3460;52.028;8.916;2023-04-15T09:02:08;8.13;;;6.80;;
6842;SDS011;3460;52.028;8.916;2023-04-15T09:04:37;9.23;;;6.50;;
6842;SDS011;3460;52.028;8.916;2023-04-15T09:07:03;9.63;;;7.20;;
6842;SDS011;3460;52.028;8.916;2023-04-15T09:09:32;8.13;;;6.33;;
6842;SDS011;3460;52.028;8.916;2023-04-15T09:12:01;7.43;;;6.13;;
6842;SDS011;3460;52.028;8.916;2023-04-15T09:14:28;6.77;;;5.73;;
6842;SDS011;3460;52.028;8.916;2023-04-15T09:16:56;9.57;;;6.87;;
6842;SDS011;3460;52.028;8.916;2023-04-15T09:19:24;8.50;;;7.03;;
6842;SDS011;3460;52.028;8.916;2023-04-15T09:21:51;9.33;;;6.73;;
6842;SDS011;3460;52.028;8.916;2023-04-15T09:24:20;9.00;;;6.53;;
6842;SDS011;3460;52.028;8.916;2023-04-15T09:26:50;9.00;;;7.00;;
6842;SDS011;3460;52.028;8.916;2023-04-15T09:29:18;9.13;;;6.97;;
6842;SDS011;3460;52.028;8.916;2023-04-15T09:31:45;7.93;;;6.40;;
6842;SDS011;3460;52.028;8.916;2023-04-15T09:34:12;7.73;;;6.30;;
6842;SDS011;3460;52.028;8.916;2023-04-15T09:36:50;8.13;;;6.93;;
6842;SDS011;3460;52.028;8.916;2023-04-15T09:39:18;9.13;;;6.70;;
6842;SDS011;3460;52.028;8.916;2023-04-15T09:41:45;8.00;;;7.07;;
6842;SDS011;3460;52.028;8.916;2023-04-15T09:44:22;8.77;;;7.37;;
6842;SDS011;3460;52.028;8.916;2023-04-15T09:46:49;9.37;;;7.33;;
6842;SDS011;3460;52.028;8.916;2023-04-15T09:49:16;8.83;;;7.20;;
6842;SDS011;3460;52.028;8.916;2023-04-15T09:51:43;8.53;;;6.73;;
6842;SDS011;3460;52.028;8.916;2023-04-15T09:54:11;8.50;;;6.80;;
6842;SDS011;3460;52.028;8.916;2023-04-15T09:56:38;8.30;;;6.47;;
6842;SDS011;3460;52.028;8.916;2023-04-15T09:59:06;7.73;;;6.20;;
6842;SDS011;3460;52.028;8.916;2023-04-15T10:01:34;7.97;;;6.47;;
6842;SDS011;3460;52.028;8.916;2023-04-15T10:04:02;8.17;;;6.47;;
6842;SDS011;3460;52.028;8.916;2023-04-15T10:06:29;8.13;;;6.20;;
6842;SDS011;3460;52.028;8.916;2023-04-15T10:08:57;7.60;;;6.27;;
6842;SDS011;3460;52.028;8.916;2023-04-15T10:11:25;7.07;;;6.10;;
6842;SDS011;3460;52.028;8.916;2023-04-15T10:13:54;6.10;;;5.10;;
6842;SDS011;3460;52.028;8.916;2023-04-15T10:16:22;6.70;;;5.33;;
6842;SDS011;3460;52.028;8.916;2023-04-15T10:18:55;7.07;;;5.93;;
6842;SDS011;3460;52.028;8.916;2023-04-15T10:21:23;6.90;;;5.40;;
6842;SDS011;3460;52.028;8.916;2023-04-15T10:23:50;7.70;;;5.63;;
6842;SDS011;3460;52.028;8.916;2023-04-15T10:26:17;7.77;;;6.23;;
6842;SDS011;3460;52.028;8.916;2023-04-15T10:28:44;6.97;;;5.47;;
6842;SDS011;3460;52.028;8.916;2023-04-15T10:31:13;5.97;;;5.03;;
6842;SDS011;3460;52.028;8.916;2023-04-15T10:33:40;6.63;;;4.87;;
6842;SDS011;3460;52.028;8.916;2023-04-15T10:36:09;5.10;;;4.60;;
6842;SDS011;3460;52.028;8.916;2023-04-15T10:38:37;4.70;;;4.27;;
6842;SDS011;3460;52.028;8.916;2023-04-15T10:41:11;5.07;;;4.57;;
6842;SDS011;3460;52.028;8.916;2023-04-15T10:43:44;5.37;;;4.63;;
6842;SDS011;3460;52.028;8.916;2023-04-15T10:46:13;5.07;;;4.50;;
6842;SDS011;3460;52.028;8.916;2023-04-15T10:48:46;8.27;;;4.83;;
6842;SDS011;3460;52.028;8.916;2023-04-15T10:51:15;6.77;;;5.13;;
6842;SDS011;3460;52.028;8.916;2023-04-15T10:53:54;7.00;;;5.40;;
6842;SDS011;3460;52.028;8.916;2023-04-15T10:56:23;5.93;;;5.33;;
6842;SDS011;3460;52.028;8.916;2023-04-15T10:58:50;4.77;;;4.33;;
6842;SDS011;3460;52.028;8.916;2023-04-15T11:01:18;4.93;;;4.43;;
6842;SDS011;3460;52.028;8.916;2023-04-15T11:03:47;5.37;;;4.87;;
6842;SDS011;3460;52.028;8.916;2023-04-15T11:06:16;5.03;;;4.47;;
6842;SDS011;3460;52.028;8.916;2023-04-15T11:08:53;5.00;;;4.50;;
6842;SDS011;3460;52.028;8.916;2023-04-15T11:11:23;5.53;;;4.90;;
6842;SDS011;3460;52.028;8.916;2023-04-15T11:14:28;5.80;;;4.80;;
6842;SDS011;3460;52.028;8.916;2023-04-15T11:16:55;6.80;;;5.67;;
6842;SDS011;3460;52.028;8.916;2023-04-15T11:19:23;6.07;;;5.30;;
6842;SDS011;3460;52.028;8.916;2023-04-15T11:21:51;4.67;;;4.27;;
6842;SDS011;3460;52.028;8.916;2023-04-15T11:24:22;4.33;;;3.93;;
6842;SDS011;3460;52.028;8.916;2023-04-15T11:26:55;4.57;;;4.17;;
6842;SDS011;3460;52.028;8.916;2023-04-15T11:29:27;4.37;;;3.90;;
6842;SDS011;3460;52.028;8.916;2023-04-15T11:32:00;4.03;;;3.63;;
6842;SDS011;3460;52.028;8.916;2023-04-15T11:34:30;4.80;;;3.77;;
6842;SDS011;3460;52.028;8.916;2023-04-15T11:37:00;4.00;;;3.60;;
6842;SDS011;3460;52.028;8.916;2023-04-15T11:39:29;4.30;;;3.90;;
6842;SDS011;3460;52.028;8.916;2023-04-15T11:41:56;4.10;;;3.70;;
6842;SDS011;3460;52.028;8.916;2023-04-15T11:44:23;5.53;;;4.90;;
6842;SDS011;3460;52.028;8.916;2023-04-15T11:46:50;6.53;;;4.63;;
6842;SDS011;3460;52.028;8.916;2023-04-15T11:49:27;4.97;;;4.47;;
6842;SDS011;3460;52.028;8.916;2023-04-15T11:51:55;4.70;;;4.30;;
6842;SDS011;3460;52.028;8.916;2023-04-15T11:54:26;5.77;;;5.10;;
6842;SDS011;3460;52.028;8.916;2023-04-15T11:56:52;4.83;;;4.33;;
6842;SDS011;3460;52.028;8.916;2023-04-15T11:59:20;5.10;;;4.60;;
6842;SDS011;3460;52.028;8.916;2023-04-15T12:01:47;5.00;;;4.50;;
6842;SDS011;3460;52.028;8.916;2023-04-15T12:04:16;5.20;;;4.70;;
6842;SDS011;3460;52.028;8.916;2023-04-15T12:06:46;5.70;;;5.13;;
6842;SDS011;3460;52.028;8.916;2023-04-15T12:09:13;5.70;;;5.10;;
6842;SDS011;3460;52.028;8.916;2023-04-15T12:11:42;5.93;;;5.33;;
6842;SDS011;3460;52.028;8.916;2023-04-15T12:14:12;5.43;;;4.93;;
6842;SDS011;3460;52.028;8.916;2023-04-15T12:16:45;5.87;;;5.27;;
6842;SDS011;3460;52.028;8.916;2023-04-15T12:19:14;6.27;;;5.20;;
6842;SDS011;3460;52.028;8.916;2023-04-15T12:21:43;6.00;;;5.40;;
6842;SDS011;3460;52.028;8.916;2023-04-15T12:24:11;6.30;;;5.70;;
6842;SDS011;3460;52.028;8.916;2023-04-15T12:26:43;6.70;;;6.00;;
6842;SDS011;3460;52.028;8.916;2023-04-15T12:29:13;6.07;;;5.40;;
6842;SDS011;3460;52.028;8.916;2023-04-15T12:31:48;6.17;;;5.60;;
6842;SDS011;3460;52.028;8.916;2023-04-15T12:34:17;6.17;;;5.50;;
6842;SDS011;3460;52.028;8.916;2023-04-15T12:36:50;6.37;;;5.77;;
6842;SDS011;3460;52.028;8.916;2023-04-15T12:39:20;6.47;;;5.40;;
6842;SDS011;3460;52.028;8.916;2023-04-15T12:41:49;5.10;;;4.60;;
6842;SDS011;3460;52.028;8.916;2023-04-15T12:44:15;5.97;;;5.37;;
6842;SDS011;3460;52.028;8.916;2023-04-15T12:46:42;5.73;;;5.23;;
6842;SDS011;3460;52.028;8.916;2023-04-15T12:49:10;7.07;;;5.93;;
6842;SDS011;3460;52.028;8.916;2023-04-15T12:51:38;9.23;;;8.27;;
6842;SDS011;3460;52.028;8.916;2023-04-15T12:54:05;7.10;;;6.40;;
6842;SDS011;3460;52.028;8.916;2023-04-15T12:56:32;6.83;;;5.90;;
6842;SDS011;3460;52.028;8.916;2023-04-15T12:59:00;7.40;;;6.13;;
6842;SDS011;3460;52.028;8.916;2023-04-15T13:01:27;8.47;;;6.10;;
6842;SDS011;3460;52.028;8.916;2023-04-15T13:03:54;6.53;;;5.90;;
6842;SDS011;3460;52.028;8.916;2023-04-15T13:06:21;6.50;;;5.90;;
6842;SDS011;3460;52.028;8.916;2023-04-15T13:08:48;7.97;;;6.60;;
6842;SDS011;3460;52.028;8.916;2023-04-15T13:11:18;6.37;;;5.73;;
6842;SDS011;3460;52.028;8.916;2023-04-15T13:13:45;7.43;;;6.10;;
6842;SDS011;3460;52.028;8.916;2023-04-15T13:16:13;6.20;;;5.40;;
6842;SDS011;3460;52.028;8.916;2023-04-15T13:18:40;6.40;;;5.63;;
6842;SDS011;3460;52.028;8.916;2023-04-15T13:21:07;6.60;;;5.87;;
6842;SDS011;3460;52.028;8.916;2023-04-15T13:23:35;6.83;;;6.13;;
6842;SDS011;3460;52.028;8.916;2023-04-15T13:26:01;7.33;;;6.53;;
6842;SDS011;3460;52.028;8.916;2023-04-15T13:28:28;9.33;;;7.67;;
6842;SDS011;3460;52.028;8.916;2023-04-15T13:30:55;9.10;;;7.87;;
6842;SDS011;3460;52.028;8.916;2023-04-15T13:33:23;11.37;;;8.13;;
6842;SDS011;3460;52.028;8.916;2023-04-15T13:35:50;9.20;;;7.80;;
6842;SDS011;3460;52.028;8.916;2023-04-15T13:38:17;8.63;;;7.77;;
6842;SDS011;3460;52.028;8.916;2023-04-15T13:40:45;9.03;;;7.30;;
6842;SDS011;3460;52.028;8.916;2023-04-15T13:43:12;9.00;;;8.10;;
6842;SDS011;3460;52.028;8.916;2023-04-15T13:45:38;9.77;;;8.63;;
6842;SDS011;3460;52.028;8.916;2023-04-15T13:48:05;9.63;;;8.63;;
6842;SDS011;3460;52.028;8.916;2023-04-15T13:50:34;10.87;;;9.27;;
6842;SDS011;3460;52.028;8.916;2023-04-15T13:53:01;10.47;;;9.00;;
6842;SDS011;3460;52.028;8.916;2023-04-15T13:55:28;10.17;;;9.07;;
6842;SDS011;3460;52.028;8.916;2023-04-15T13:57:55;9.93;;;8.93;;
6842;SDS011;3460;52.028;8.916;2023-04-15T14:00:22;12.50;;;9.37;;
6842;SDS011;3460;52.028;8.916;2023-04-15T14:02:49;11.17;;;9.97;;
6842;SDS011;3460;52.028;8.916;2023-04-15T14:05:15;11.17;;;9.60;;
6842;SDS011;3460;52.028;8.916;2023-04-15T14:07:44;33.87;;;24.70;;
6842;SDS011;3460;52.028;8.916;2023-04-15T14:10:11;25.90;;;20.13;;
6842;SDS011;3460;52.028;8.916;2023-04-15T14:12:38;14.40;;;11.07;;
6842;SDS011;3460;52.028;8.916;2023-04-15T14:15:05;12.20;;;10.30;;
6842;SDS011;3460;52.028;8.916;2023-04-15T14:17:32;11.30;;;9.50;;
6842;SDS011;3460;52.028;8.916;2023-04-15T14:19:59;15.20;;;10.60;;
6842;SDS011;3460;52.028;8.916;2023-04-15T14:22:26;11.83;;;10.53;;
6842;SDS011;3460;52.028;8.916;2023-04-15T14:24:54;17.60;;;15.43;;
6842;SDS011;3460;52.028;8.916;2023-04-15T14:27:21;13.23;;;10.60;;
6842;SDS011;3460;52.028;8.916;2023-04-15T14:29:48;13.73;;;11.23;;
6842;SDS011;3460;52.028;8.916;2023-04-15T14:32:15;15.27;;;10.97;;
6842;SDS011;3460;52.028;8.916;2023-04-15T14:34:42;13.10;;;10.80;;
6842;SDS011;3460;52.028;8.916;2023-04-15T14:37:08;13.50;;;11.23;;
6842;SDS011;3460;52.028;8.916;2023-04-15T14:39:35;13.83;;;10.93;;
6842;SDS011;3460;52.028;8.916;2023-04-15T14:42:03;12.33;;;10.97;;
6842;SDS011;3460;52.028;8.916;2023-04-15T14:44:30;13.40;;;11.07;;
6842;SDS011;3460;52.028;8.916;2023-04-15T14:46:57;12.30;;;10.53;;
6842;SDS011;3460;52.028;8.916;2023-04-15T14:49:24;12.13;;;10.37;;
6842;SDS011;3460;52.028;8.916;2023-04-15T14:51:51;14.37;;;10.47;;
6842;SDS011;3460;52.028;8.916;2023-04-15T14:54:18;12.73;;;10.93;;
6842;SDS011;3460;52.028;8.916;2023-04-15T14:56:45;11.53;;;10.33;;
6842;SDS011;3460;52.028;8.916;2023-04-15T14:59:13;13.40;;;11.27;;
6842;SDS011;3460;52.028;8.916;2023-04-15T15:01:40;14.07;;;10.97;;
6842;SDS011;3460;52.028;8.916;2023-04-15T15:04:08;13.93;;;10.87;;
6842;SDS011;3460;52.028;8.916;2023-04-15T15:06:35;13.53;;;10.57;;
6842;SDS011;3460;52.028;8.916;2023-04-15T15:09:02;13.73;;;10.37;;
6842;SDS011;3460;52.028;8.916;2023-04-15T15:11:29;13.07;;;10.23;;
6842;SDS011;3460;52.028;8.916;2023-04-15T15:13:56;30.50;;;22.97;;